sensor_id;sensor_type;location;lat;lon;timestamp;P1;durP1;ratioP1;P2;durP2;ratioP2
8042;SDS011;4064;48.132;11.366;2023-11-21T00:00:18;6.13;;;1.97;;
8042;SDS011;4064;48.132;11.366;2023-11-21T00:02:44;4.90;;;1.87;;
8042;SDS011;4064;48.132;11.366;2023-11-21T00:05:11;3.77;;;2.20;;
8042;SDS011;4064;48.132;11.366;2023-11-21T00:07:39;4.13;;;1.57;;
8042;SDS011;4064;48.132;11.366;2023-11-21T00:10:06;1.73;;;1.20;;
8042;SDS011;4064;48.132;11.366;2023-11-21T00:12:36;2.23;;;1.80;;
8042;SDS011;4064;48.132;11.366;2023-11-21T00:15:02;3.83;;;1.30;;
8042;SDS011;4064;48.132;11.366;2023-11-21T00:17:30;4.93;;;1.53;;
8042;SDS011;4064;48.132;11.366;2023-11-21T00:19:56;3.00;;;1.30;;
8042;SDS011;4064;48.132;11.366;2023-11-21T00:22:21;4.63;;;1.60;;
8042;SDS011;4064;48.132;11.366;2023-11-21T00:24:47;3.33;;;1.63;;
8042;SDS011;4064;48.132;11.366;2023-11-21T00:27:13;2.83;;;1.47;;
8042;SDS011;4064;48.132;11.366;2023-11-21T00:29:39;3.23;;;1.40;;
8042;SDS011;4064;48.132;11.366;2023-11-21T00:32:05;2.23;;;1.07;;
8042;SDS011;4064;48.132;11.366;2023-11-21T00:34:31;3.40;;;1.70;;
8042;SDS011;4064;48.132;11.366;2023-11-21T00:36:57;2.00;;;1.30;;
8042;SDS011;4064;48.132;11.366;2023-11-21T00:39:23;3.87;;;1.33;;
8042;SDS011;4064;48.132;11.366;2023-11-21T00:41:51;2.93;;;1.67;;
8042;SDS011;4064;48.132;11.366;2023-11-21T00:44:18;4.10;;;2.13;;
8042;SDS011;4064;48.132;11.366;2023-11-21T00:46:43;4.20;;;1.30;;
8042;SDS011;4064;48.132;11.366;2023-11-21T00:49:09;2.23;;;1.70;;
8042;SDS011;4064;48.132;11.366;2023-11-21T00:51:35;3.40;;;1.33;;
8042;SDS011;4064;48.132;11.366;2023-11-21T00:54:01;2.20;;;2.03;;
8042;SDS011;4064;48.132;11.366;2023-11-21T00:56:27;3.60;;;1.90;;
8042;SDS011;4064;48.132;11.366;2023-11-21T00:58:53;2.97;;;1.40;;
8042;SDS011;4064;48.132;11.366;2023-11-21T01:01:19;2.30;;;1.13;;
8042;SDS011;4064;48.132;11.366;2023-11-21T01:03:47;4.37;;;2.60;;
8042;SDS011;4064;48.132;11.366;2023-11-21T01:06:12;1.33;;;1.20;;
8042;SDS011;4064;48.132;11.366;2023-11-21T01:08:39;1.90;;;1.40;;
8042;SDS011;4064;48.132;11.366;2023-11-21T01:11:05;6.30;;;2.03;;
8042;SDS011;4064;48.132;11.366;2023-11-21T01:13:33;3.57;;;1.50;;
8042;SDS011;4064;48.132;11.366;2023-11-21T01:16:00;3.90;;;1.53;;
8042;SDS011;4064;48.132;11.366;2023-11-21T01:18:26;9.57;;;2.00;;
8042;SDS011;4064;48.132;11.366;2023-11-21T01:20:51;5.97;;;1.43;;
8042;SDS011;4064;48.132;11.366;2023-11-21T01:23:20;5.70;;;1.60;;
8042;SDS011;4064;48.132;11.366;2023-11-21T01:25:46;4.60;;;2.30;;
8042;SDS011;4064;48.132;11.366;2023-11-21T01:28:11;4.20;;;1.90;;
8042;SDS011;4064;48.132;11.366;2023-11-21T01:30:37;3.43;;;1.50;;
8042;SDS011;4064;48.132;11.366;2023-11-21T01:33:03;3.50;;;1.80;;
8042;SDS011;4064;48.132;11.366;2023-11-21T01:35:29;4.27;;;1.93;;
8042;SDS011;4064;48.132;11.366;2023-11-21T01:37:55;4.63;;;1.47;;
8042;SDS011;4064;48.132;11.366;2023-11-21T01:40:21;6.13;;;2.23;;
8042;SDS011;4064;48.132;11.366;2023-11-21T01:42:46;4.47;;;1.60;;
8042;SDS011;4064;48.132;11.366;2023-11-21T01:45:13;3.97;;;1.60;;
8042;SDS011;4064;48.132;11.366;2023-11-21T01:47:40;2.30;;;1.60;;
8042;SDS011;4064;48.132;11.366;2023-11-21T01:50:07;6.27;;;1.67;;
8042;SDS011;4064;48.132;11.366;2023-11-21T01:52:36;3.73;;;1.87;;
8042;SDS011;4064;48.132;11.366;2023-11-21T01:55:04;3.07;;;1.40;;
8042;SDS011;4064;48.132;11.366;2023-11-21T01:57:31;3.87;;;1.50;;
8042;SDS011;4064;48.132;11.366;2023-11-21T01:59:57;5.70;;;2.37;;
8042;SDS011;4064;48.132;11.366;2023-11-21T02:02:26;4.97;;;2.63;;
8042;SDS011;4064;48.132;11.366;2023-11-21T02:04:52;4.70;;;2.57;;
8042;SDS011;4064;48.132;11.366;2023-11-21T02:07:17;4.60;;;1.97;;
8042;SDS011;4064;48.132;11.366;2023-11-21T02:09:44;3.30;;;1.75;;
8042;SDS011;4064;48.132;11.366;2023-11-21T02:12:10;2.23;;;1.70;;
8042;SDS011;4064;48.132;11.366;2023-11-21T02:14:36;2.60;;;1.63;;
8042;SDS011;4064;48.132;11.366;2023-11-21T02:17:02;3.55;;;1.40;;
8042;SDS011;4064;48.132;11.366;2023-11-21T02:19:28;7.63;;;1.63;;
8042;SDS011;4064;48.132;11.366;2023-11-21T02:21:56;6.90;;;1.87;;
8042;SDS011;4064;48.132;11.366;2023-11-21T02:24:28;3.42;;;1.40;;
8042;SDS011;4064;48.132;11.366;2023-11-21T02:26:54;2.50;;;1.60;;
8042;SDS011;4064;48.132;11.366;2023-11-21T02:29:20;3.10;;;1.40;;
8042;SDS011;4064;48.132;11.366;2023-11-21T02:31:53;1.15;;;1.05;;
8042;SDS011;4064;48.132;11.366;2023-11-21T02:34:19;3.53;;;1.30;;
8042;SDS011;4064;48.132;11.366;2023-11-21T02:36:46;2.53;;;1.70;;
8042;SDS011;4064;48.132;11.366;2023-11-21T02:39:14;3.00;;;1.33;;
8042;SDS011;4064;48.132;11.366;2023-11-21T02:41:41;4.80;;;1.55;;
8042;SDS011;4064;48.132;11.366;2023-11-21T02:44:08;3.88;;;1.23;;
8042;SDS011;4064;48.132;11.366;2023-11-21T02:46:34;3.40;;;1.60;;
8042;SDS011;4064;48.132;11.366;2023-11-21T02:49:01;5.45;;;1.85;;
8042;SDS011;4064;48.132;11.366;2023-11-21T02:51:28;3.25;;;1.67;;
8042;SDS011;4064;48.132;11.366;2023-11-21T02:53:54;2.53;;;1.42;;
8042;SDS011;4064;48.132;11.366;2023-11-21T02:56:23;5.38;;;1.65;;
8042;SDS011;4064;48.132;11.366;2023-11-21T02:58:50;8.27;;;2.25;;
8042;SDS011;4064;48.132;11.366;2023-11-21T03:01:16;2.10;;;1.63;;
8042;SDS011;4064;48.132;11.366;2023-11-21T03:03:42;3.53;;;1.33;;
8042;SDS011;4064;48.132;11.366;2023-11-21T03:06:07;5.80;;;1.70;;
8042;SDS011;4064;48.132;11.366;2023-11-21T03:08:33;3.13;;;1.47;;
8042;SDS011;4064;48.132;11.366;2023-11-21T03:10:59;1.88;;;1.15;;
8042;SDS011;4064;48.132;11.366;2023-11-21T03:13:25;2.87;;;1.50;;
8042;SDS011;4064;48.132;11.366;2023-11-21T03:15:51;3.30;;;1.73;;
8042;SDS011;4064;48.132;11.366;2023-11-21T03:18:17;1.97;;;1.27;;
8042;SDS011;4064;48.132;11.366;2023-11-21T03:20:43;5.43;;;1.00;;
8042;SDS011;4064;48.132;11.366;2023-11-21T03:23:12;2.85;;;1.10;;
8042;SDS011;4064;48.132;11.366;2023-11-21T03:25:37;4.63;;;1.63;;
8042;SDS011;4064;48.132;11.366;2023-11-21T03:28:03;4.47;;;1.40;;
8042;SDS011;4064;48.132;11.366;2023-11-21T03:30:29;2.93;;;1.10;;
8042;SDS011;4064;48.132;11.366;2023-11-21T03:32:55;3.78;;;1.30;;
8042;SDS011;4064;48.132;11.366;2023-11-21T03:35:21;1.60;;;0.90;;
8042;SDS011;4064;48.132;11.366;2023-11-21T03:37:47;2.20;;;1.20;;
8042;SDS011;4064;48.132;11.366;2023-11-21T03:40:12;1.67;;;1.03;;
8042;SDS011;4064;48.132;11.366;2023-11-21T03:42:38;3.23;;;1.20;;
8042;SDS011;4064;48.132;11.366;2023-11-21T03:45:05;2.70;;;1.10;;
8042;SDS011;4064;48.132;11.366;2023-11-21T03:47:31;2.40;;;1.00;;
8042;SDS011;4064;48.132;11.366;2023-11-21T03:49:57;3.10;;;1.30;;
8042;SDS011;4064;48.132;11.366;2023-11-21T03:52:23;2.30;;;1.20;;
8042;SDS011;4064;48.132;11.366;2023-11-21T03:54:49;1.52;;;1.10;;
8042;SDS011;4064;48.132;11.366;2023-11-21T03:57:15;2.50;;;1.30;;
8042;SDS011;4064;48.132;11.366;2023-11-21T03:59:40;3.37;;;1.00;;
8042;SDS011;4064;48.132;11.366;2023-11-21T04:02:06;3.25;;;1.45;;
8042;SDS011;4064;48.132;11.366;2023-11-21T04:04:33;5.78;;;1.48;;
8042;SDS011;4064;48.132;11.366;2023-11-21T04:06:59;10.30;;;1.23;;
8042;SDS011;4064;48.132;11.366;2023-11-21T04:09:25;2.97;;;1.27;;
8042;SDS011;4064;48.132;11.366;2023-11-21T04:11:51;1.37;;;1.10;;
8042;SDS011;4064;48.132;11.366;2023-11-21T04:14:17;2.70;;;1.63;;
8042;SDS011;4064;48.132;11.366;2023-11-21T04:16:43;5.23;;;1.93;;
8042;SDS011;4064;48.132;11.366;2023-11-21T04:19:08;1.80;;;1.30;;
8042;SDS011;4064;48.132;11.366;2023-11-21T04:21:35;3.20;;;1.60;;
8042;SDS011;4064;48.132;11.366;2023-11-21T04:24:02;2.07;;;1.27;;
8042;SDS011;4064;48.132;11.366;2023-11-21T04:26:27;5.03;;;1.43;;
8042;SDS011;4064;48.132;11.366;2023-11-21T04:28:53;3.10;;;0.87;;
8042;SDS011;4064;48.132;11.366;2023-11-21T04:31:19;2.50;;;1.07;;
8042;SDS011;4064;48.132;11.366;2023-11-21T04:33:44;3.13;;;1.87;;
8042;SDS011;4064;48.132;11.366;2023-11-21T04:36:10;4.40;;;1.07;;
8042;SDS011;4064;48.132;11.366;2023-11-21T04:38:36;1.83;;;1.17;;
8042;SDS011;4064;48.132;11.366;2023-11-21T04:41:01;4.17;;;2.90;;
8042;SDS011;4064;48.132;11.366;2023-11-21T04:43:27;4.07;;;1.60;;
8042;SDS011;4064;48.132;11.366;2023-11-21T04:45:54;2.43;;;0.80;;
8042;SDS011;4064;48.132;11.366;2023-11-21T04:48:20;5.00;;;1.85;;
8042;SDS011;4064;48.132;11.366;2023-11-21T04:50:45;1.80;;;1.10;;
8042;SDS011;4064;48.132;11.366;2023-11-21T04:53:11;7.63;;;2.40;;
8042;SDS011;4064;48.132;11.366;2023-11-21T04:55:39;2.97;;;1.00;;
8042;SDS011;4064;48.132;11.366;2023-11-21T04:58:05;1.40;;;1.10;;
8042;SDS011;4064;48.132;11.366;2023-11-21T05:00:31;1.67;;;1.40;;
8042;SDS011;4064;48.132;11.366;2023-11-21T05:02:57;1.13;;;0.87;;
8042;SDS011;4064;48.132;11.366;2023-11-21T05:05:22;4.03;;;1.53;;
8042;SDS011;4064;48.132;11.366;2023-11-21T05:07:49;2.08;;;0.98;;
8042;SDS011;4064;48.132;11.366;2023-11-21T05:10:14;1.30;;;1.03;;
8042;SDS011;4064;48.132;11.366;2023-11-21T05:12:41;2.00;;;1.67;;
8042;SDS011;4064;48.132;11.366;2023-11-21T05:15:07;1.90;;;1.10;;
8042;SDS011;4064;48.132;11.366;2023-11-21T05:17:37;3.23;;;1.30;;
8042;SDS011;4064;48.132;11.366;2023-11-21T05:20:07;3.92;;;1.27;;
8042;SDS011;4064;48.132;11.366;2023-11-21T05:22:35;1.92;;;1.10;;
8042;SDS011;4064;48.132;11.366;2023-11-21T05:25:01;2.13;;;1.17;;
8042;SDS011;4064;48.132;11.366;2023-11-21T05:27:29;1.70;;;1.20;;
8042;SDS011;4064;48.132;11.366;2023-11-21T05:29:58;4.28;;;1.73;;
8042;SDS011;4064;48.132;11.366;2023-11-21T05:32:24;1.43;;;0.90;;
8042;SDS011;4064;48.132;11.366;2023-11-21T05:34:50;1.30;;;0.98;;
8042;SDS011;4064;48.132;11.366;2023-11-21T05:37:16;1.23;;;0.80;;
8042;SDS011;4064;48.132;11.366;2023-11-21T05:39:42;2.13;;;1.00;;
8042;SDS011;4064;48.132;11.366;2023-11-21T05:42:08;1.47;;;0.77;;
8042;SDS011;4064;48.132;11.366;2023-11-21T05:44:35;3.15;;;0.95;;
8042;SDS011;4064;48.132;11.366;2023-11-21T05:47:02;1.27;;;0.85;;
8042;SDS011;4064;48.132;11.366;2023-11-21T05:49:28;3.55;;;0.90;;
8042;SDS011;4064;48.132;11.366;2023-11-21T05:51:55;1.90;;;0.93;;
8042;SDS011;4064;48.132;11.366;2023-11-21T05:54:20;4.47;;;1.20;;
8042;SDS011;4064;48.132;11.366;2023-11-21T05:56:47;1.00;;;0.73;;
8042;SDS011;4064;48.132;11.366;2023-11-21T05:59:13;2.10;;;0.97;;
8042;SDS011;4064;48.132;11.366;2023-11-21T06:01:39;1.38;;;0.93;;
8042;SDS011;4064;48.132;11.366;2023-11-21T06:04:05;4.87;;;1.40;;
8042;SDS011;4064;48.132;11.366;2023-11-21T06:06:33;1.48;;;1.00;;
8042;SDS011;4064;48.132;11.366;2023-11-21T06:08:59;1.30;;;0.90;;
8042;SDS011;4064;48.132;11.366;2023-11-21T06:11:25;3.60;;;1.20;;
8042;SDS011;4064;48.132;11.366;2023-11-21T06:13:50;1.23;;;0.80;;
8042;SDS011;4064;48.132;11.366;2023-11-21T06:16:18;1.50;;;1.00;;
8042;SDS011;4064;48.132;11.366;2023-11-21T06:18:47;1.60;;;1.15;;
8042;SDS011;4064;48.132;11.366;2023-11-21T06:21:13;5.60;;;1.05;;
8042;SDS011;4064;48.132;11.366;2023-11-21T06:23:39;2.07;;;1.20;;
8042;SDS011;4064;48.132;11.366;2023-11-21T06:26:05;1.40;;;0.90;;
8042;SDS011;4064;48.132;11.366;2023-11-21T06:28:31;2.37;;;1.03;;
8042;SDS011;4064;48.132;11.366;2023-11-21T06:30:57;2.10;;;1.00;;
8042;SDS011;4064;48.132;11.366;2023-11-21T06:33:30;1.50;;;1.10;;
8042;SDS011;4064;48.132;11.366;2023-11-21T06:35:56;1.93;;;1.27;;
8042;SDS011;4064;48.132;11.366;2023-11-21T06:38:22;6.80;;;1.10;;
8042;SDS011;4064;48.132;11.366;2023-11-21T06:40:48;1.33;;;0.97;;
8042;SDS011;4064;48.132;11.366;2023-11-21T06:43:13;1.30;;;1.03;;
8042;SDS011;4064;48.132;11.366;2023-11-21T06:45:39;1.30;;;1.13;;
8042;SDS011;4064;48.132;11.366;2023-11-21T06:48:05;1.63;;;0.93;;
8042;SDS011;4064;48.132;11.366;2023-11-21T06:50:30;4.07;;;1.23;;
8042;SDS011;4064;48.132;11.366;2023-11-21T06:52:56;1.50;;;1.30;;
8042;SDS011;4064;48.132;11.366;2023-11-21T06:55:22;1.70;;;1.17;;
8042;SDS011;4064;48.132;11.366;2023-11-21T06:57:48;2.30;;;0.87;;
8042;SDS011;4064;48.132;11.366;2023-11-21T07:00:15;2.20;;;0.90;;
8042;SDS011;4064;48.132;11.366;2023-11-21T07:02:42;1.65;;;0.95;;
8042;SDS011;4064;48.132;11.366;2023-11-21T07:05:08;1.10;;;0.80;;
8042;SDS011;4064;48.132;11.366;2023-11-21T07:07:34;2.33;;;1.20;;
8042;SDS011;4064;48.132;11.366;2023-11-21T07:10:00;2.20;;;1.17;;
8042;SDS011;4064;48.132;11.366;2023-11-21T07:12:28;1.92;;;0.90;;
8042;SDS011;4064;48.132;11.366;2023-11-21T07:14:56;1.05;;;0.80;;
8042;SDS011;4064;48.132;11.366;2023-11-21T07:17:22;1.20;;;0.70;;
8042;SDS011;4064;48.132;11.366;2023-11-21T07:19:48;6.15;;;1.08;;
8042;SDS011;4064;48.132;11.366;2023-11-21T07:22:14;0.98;;;0.68;;
8042;SDS011;4064;48.132;11.366;2023-11-21T07:24:47;2.75;;;1.10;;
8042;SDS011;4064;48.132;11.366;2023-11-21T07:27:16;3.88;;;2.88;;
8042;SDS011;4064;48.132;11.366;2023-11-21T07:29:42;2.10;;;0.80;;
8042;SDS011;4064;48.132;11.366;2023-11-21T07:32:08;0.90;;;0.60;;
8042;SDS011;4064;48.132;11.366;2023-11-21T07:34:34;1.40;;;1.20;;
8042;SDS011;4064;48.132;11.366;2023-11-21T07:37:01;1.30;;;1.00;;
8042;SDS011;4064;48.132;11.366;2023-11-21T07:39:27;2.30;;;1.20;;
8042;SDS011;4064;48.132;11.366;2023-11-21T07:41:53;1.10;;;0.80;;
8042;SDS011;4064;48.132;11.366;2023-11-21T07:44:19;1.60;;;1.00;;
8042;SDS011;4064;48.132;11.366;2023-11-21T07:46:45;2.40;;;1.07;;
8042;SDS011;4064;48.132;11.366;2023-11-21T07:49:11;4.73;;;1.10;;
8042;SDS011;4064;48.132;11.366;2023-11-21T07:51:41;1.55;;;1.02;;
8042;SDS011;4064;48.132;11.366;2023-11-21T07:54:07;2.10;;;0.87;;
8042;SDS011;4064;48.132;11.366;2023-11-21T07:56:33;1.87;;;1.13;;
8042;SDS011;4064;48.132;11.366;2023-11-21T07:58:58;1.83;;;1.20;;
8042;SDS011;4064;48.132;11.366;2023-11-21T08:01:24;1.73;;;1.00;;
8042;SDS011;4064;48.132;11.366;2023-11-21T08:03:50;1.00;;;0.80;;
8042;SDS011;4064;48.132;11.366;2023-11-21T08:06:17;1.40;;;0.90;;
8042;SDS011;4064;48.132;11.366;2023-11-21T08:08:43;2.77;;;1.07;;
8042;SDS011;4064;48.132;11.366;2023-11-21T08:11:09;1.30;;;1.03;;
8042;SDS011;4064;48.132;11.366;2023-11-21T08:13:36;2.50;;;0.80;;
8042;SDS011;4064;48.132;11.366;2023-11-21T08:16:01;3.10;;;1.00;;
8042;SDS011;4064;48.132;11.366;2023-11-21T08:18:29;1.93;;;0.80;;
8042;SDS011;4064;48.132;11.366;2023-11-21T08:20:56;3.10;;;0.87;;
8042;SDS011;4064;48.132;11.366;2023-11-21T08:23:22;1.93;;;0.80;;
8042;SDS011;4064;48.132;11.366;2023-11-21T08:25:51;1.60;;;1.20;;
8042;SDS011;4064;48.132;11.366;2023-11-21T08:28:18;1.73;;;1.10;;
8042;SDS011;4064;48.132;11.366;2023-11-21T08:30:44;3.30;;;1.00;;
8042;SDS011;4064;48.132;11.366;2023-11-21T08:33:10;1.67;;;0.80;;
8042;SDS011;4064;48.132;11.366;2023-11-21T08:35:38;1.67;;;1.00;;
8042;SDS011;4064;48.132;11.366;2023-11-21T08:38:04;1.77;;;1.10;;
8042;SDS011;4064;48.132;11.366;2023-11-21T08:40:30;1.73;;;1.10;;
8042;SDS011;4064;48.132;11.366;2023-11-21T08:42:55;5.00;;;1.60;;
8042;SDS011;4064;48.132;11.366;2023-11-21T08:45:23;3.23;;;1.00;;
8042;SDS011;4064;48.132;11.366;2023-11-21T08:47:50;1.20;;;0.90;;
8042;SDS011;4064;48.132;11.366;2023-11-21T08:50:16;1.50;;;1.13;;
8042;SDS011;4064;48.132;11.366;2023-11-21T08:52:43;3.73;;;1.93;;
8042;SDS011;4064;48.132;11.366;2023-11-21T08:55:10;2.00;;;1.23;;
8042;SDS011;4064;48.132;11.366;2023-11-21T08:57:40;1.57;;;1.23;;
8042;SDS011;4064;48.132;11.366;2023-11-21T09:00:08;1.73;;;0.80;;
8042;SDS011;4064;48.132;11.366;2023-11-21T09:02:36;2.10;;;1.00;;
8042;SDS011;4064;48.132;11.366;2023-11-21T09:05:03;1.67;;;1.03;;
8042;SDS011;4064;48.132;11.366;2023-11-21T09:07:30;3.70;;;1.00;;
8042;SDS011;4064;48.132;11.366;2023-11-21T09:09:56;1.83;;;0.90;;
8042;SDS011;4064;48.132;11.366;2023-11-21T09:12:21;2.63;;;1.40;;
8042;SDS011;4064;48.132;11.366;2023-11-21T09:14:47;4.13;;;1.13;;
8042;SDS011;4064;48.132;11.366;2023-11-21T09:17:15;2.83;;;1.30;;
8042;SDS011;4064;48.132;11.366;2023-11-21T09:19:40;1.43;;;1.07;;
8042;SDS011;4064;48.132;11.366;2023-11-21T09:22:11;4.47;;;1.47;;
8042;SDS011;4064;48.132;11.366;2023-11-21T09:24:37;2.53;;;1.00;;
8042;SDS011;4064;48.132;11.366;2023-11-21T09:27:03;2.80;;;0.90;;
8042;SDS011;4064;48.132;11.366;2023-11-21T09:29:30;1.10;;;0.80;;
8042;SDS011;4064;48.132;11.366;2023-11-21T09:31:56;3.37;;;1.23;;
8042;SDS011;4064;48.132;11.366;2023-11-21T09:34:24;1.80;;;1.07;;
8042;SDS011;4064;48.132;11.366;2023-11-21T09:36:50;1.93;;;1.30;;
8042;SDS011;4064;48.132;11.366;2023-11-21T09:39:17;3.33;;;1.20;;
8042;SDS011;4064;48.132;11.366;2023-11-21T09:41:49;1.77;;;0.90;;
8042;SDS011;4064;48.132;11.366;2023-11-21T09:44:22;1.70;;;1.10;;
8042;SDS011;4064;48.132;11.366;2023-11-21T09:46:53;1.70;;;1.00;;
8042;SDS011;4064;48.132;11.366;2023-11-21T09:49:22;2.13;;;1.00;;
8042;SDS011;4064;48.132;11.366;2023-11-21T09:51:53;2.90;;;1.57;;
8042;SDS011;4064;48.132;11.366;2023-11-21T09:54:22;2.03;;;1.83;;
8042;SDS011;4064;48.132;11.366;2023-11-21T09:56:49;4.03;;;1.20;;
8042;SDS011;4064;48.132;11.366;2023-11-21T09:59:15;3.10;;;1.20;;
8042;SDS011;4064;48.132;11.366;2023-11-21T10:01:41;3.17;;;1.10;;
8042;SDS011;4064;48.132;11.366;2023-11-21T10:04:10;3.27;;;1.00;;
8042;SDS011;4064;48.132;11.366;2023-11-21T10:06:38;1.20;;;0.93;;
8042;SDS011;4064;48.132;11.366;2023-11-21T10:12:28;1.67;;;1.00;;
8042;SDS011;4064;48.132;11.366;2023-11-21T10:14:54;2.90;;;1.03;;
8042;SDS011;4064;48.132;11.366;2023-11-21T10:17:25;2.37;;;1.27;;
8042;SDS011;4064;48.132;11.366;2023-11-21T10:19:55;1.77;;;0.90;;
8042;SDS011;4064;48.132;11.366;2023-11-21T10:22:22;1.57;;;1.13;;
8042;SDS011;4064;48.132;11.366;2023-11-21T10:24:49;1.47;;;1.30;;
8042;SDS011;4064;48.132;11.366;2023-11-21T10:27:14;4.50;;;1.10;;
8042;SDS011;4064;48.132;11.366;2023-11-21T10:29:40;1.60;;;1.37;;
8042;SDS011;4064;48.132;11.366;2023-11-21T10:32:06;2.80;;;1.40;;
8042;SDS011;4064;48.132;11.366;2023-11-21T10:34:32;2.70;;;1.00;;
8042;SDS011;4064;48.132;11.366;2023-11-21T10:40:21;2.50;;;1.23;;
8042;SDS011;4064;48.132;11.366;2023-11-21T10:42:47;1.77;;;1.53;;
8042;SDS011;4064;48.132;11.366;2023-11-21T10:45:12;2.80;;;1.30;;
8042;SDS011;4064;48.132;11.366;2023-11-21T10:47:39;3.20;;;1.23;;
8042;SDS011;4064;48.132;11.366;2023-11-21T10:50:07;1.63;;;1.13;;
8042;SDS011;4064;48.132;11.366;2023-11-21T10:52:36;2.40;;;1.30;;
8042;SDS011;4064;48.132;11.366;2023-11-21T10:55:15;1.47;;;1.03;;
8042;SDS011;4064;48.132;11.366;2023-11-21T10:57:43;1.30;;;1.20;;
8042;SDS011;4064;48.132;11.366;2023-11-21T11:00:13;1.67;;;1.23;;
8042;SDS011;4064;48.132;11.366;2023-11-21T11:02:41;2.47;;;1.30;;
8042;SDS011;4064;48.132;11.366;2023-11-21T11:05:07;1.60;;;1.27;;
8042;SDS011;4064;48.132;11.366;2023-11-21T11:07:36;2.50;;;1.50;;
8042;SDS011;4064;48.132;11.366;2023-11-21T11:10:08;2.80;;;2.50;;
8042;SDS011;4064;48.132;11.366;2023-11-21T11:12:39;3.93;;;1.20;;
8042;SDS011;4064;48.132;11.366;2023-11-21T11:15:07;1.50;;;1.00;;
8042;SDS011;4064;48.132;11.366;2023-11-21T11:17:35;2.07;;;1.20;;
8042;SDS011;4064;48.132;11.366;2023-11-21T11:20:07;6.40;;;1.47;;
8042;SDS011;4064;48.132;11.366;2023-11-21T11:22:37;1.87;;;1.17;;
8042;SDS011;4064;48.132;11.366;2023-11-21T11:28:11;1.87;;;1.40;;
8042;SDS011;4064;48.132;11.366;2023-11-21T11:38:47;2.00;;;1.33;;
8042;SDS011;4064;48.132;11.366;2023-11-21T11:41:25;1.87;;;1.03;;
8042;SDS011;4064;48.132;11.366;2023-11-21T11:43:53;3.43;;;1.33;;
8042;SDS011;4064;48.132;11.366;2023-11-21T11:46:19;1.20;;;1.00;;
8042;SDS011;4064;48.132;11.366;2023-11-21T11:48:48;1.60;;;0.97;;
8042;SDS011;4064;48.132;11.366;2023-11-21T11:51:28;1.37;;;1.00;;
8042;SDS011;4064;48.132;11.366;2023-11-21T11:53:53;1.67;;;1.10;;
8042;SDS011;4064;48.132;11.366;2023-11-21T11:58:51;1.93;;;1.13;;
8042;SDS011;4064;48.132;11.366;2023-11-21T12:01:21;2.50;;;1.10;;
8042;SDS011;4064;48.132;11.366;2023-11-21T12:06:42;1.13;;;0.80;;
8042;SDS011;4064;48.132;11.366;2023-11-21T12:09:21;1.43;;;0.80;;
8042;SDS011;4064;48.132;11.366;2023-11-21T12:11:49;1.50;;;1.10;;
8042;SDS011;4064;48.132;11.366;2023-11-21T12:14:15;0.93;;;0.77;;
8042;SDS011;4064;48.132;11.366;2023-11-21T12:16:42;2.33;;;0.90;;
8042;SDS011;4064;48.132;11.366;2023-11-21T12:19:08;1.57;;;0.77;;
8042;SDS011;4064;48.132;11.366;2023-11-21T12:21:37;0.93;;;0.67;;
8042;SDS011;4064;48.132;11.366;2023-11-21T12:24:06;1.33;;;0.70;;
8042;SDS011;4064;48.132;11.366;2023-11-21T12:26:34;1.93;;;0.90;;
8042;SDS011;4064;48.132;11.366;2023-11-21T12:29:01;1.73;;;0.87;;
8042;SDS011;4064;48.132;11.366;2023-11-21T12:31:29;1.00;;;0.90;;
8042;SDS011;4064;48.132;11.366;2023-11-21T12:33:55;1.47;;;0.80;;
8042;SDS011;4064;48.132;11.366;2023-11-21T12:36:22;2.97;;;0.93;;
8042;SDS011;4064;48.132;11.366;2023-11-21T12:38:48;1.93;;;1.30;;
8042;SDS011;4064;48.132;11.366;2023-11-21T12:41:14;1.77;;;1.00;;
8042;SDS011;4064;48.132;11.366;2023-11-21T12:43:42;1.10;;;0.80;;
8042;SDS011;4064;48.132;11.366;2023-11-21T12:46:09;1.97;;;1.77;;
8042;SDS011;4064;48.132;11.366;2023-11-21T12:48:39;4.97;;;0.80;;
8042;SDS011;4064;48.132;11.366;2023-11-21T12:51:09;1.50;;;1.00;;
8042;SDS011;4064;48.132;11.366;2023-11-21T12:53:35;1.40;;;0.90;;
8042;SDS011;4064;48.132;11.366;2023-11-21T12:56:12;1.10;;;0.90;;
8042;SDS011;4064;48.132;11.366;2023-11-21T12:58:43;3.67;;;0.93;;
8042;SDS011;4064;48.132;11.366;2023-11-21T13:01:12;1.10;;;0.80;;
8042;SDS011;4064;48.132;11.366;2023-11-21T13:03:43;1.00;;;0.70;;
8042;SDS011;4064;48.132;11.366;2023-11-21T13:06:10;1.80;;;1.20;;
8042;SDS011;4064;48.132;11.366;2023-11-21T13:08:37;1.33;;;1.07;;
8042;SDS011;4064;48.132;11.366;2023-11-21T13:11:04;2.20;;;1.17;;
8042;SDS011;4064;48.132;11.366;2023-11-21T13:13:31;2.37;;;1.73;;
8042;SDS011;4064;48.132;11.366;2023-11-21T13:15:59;2.30;;;1.80;;
8042;SDS011;4064;48.132;11.366;2023-11-21T13:18:29;5.27;;;2.30;;
8042;SDS011;4064;48.132;11.366;2023-11-21T13:20:59;6.00;;;1.73;;
8042;SDS011;4064;48.132;11.366;2023-11-21T13:23:28;2.57;;;1.87;;
8042;SDS011;4064;48.132;11.366;2023-11-21T13:25:54;2.90;;;1.80;;
8042;SDS011;4064;48.132;11.366;2023-11-21T13:28:20;6.03;;;1.83;;
8042;SDS011;4064;48.132;11.366;2023-11-21T13:30:49;1.93;;;1.40;;
8042;SDS011;4064;48.132;11.366;2023-11-21T13:33:17;2.77;;;1.63;;
8042;SDS011;4064;48.132;11.366;2023-11-21T13:35:46;2.77;;;1.47;;
8042;SDS011;4064;48.132;11.366;2023-11-21T13:38:15;2.60;;;1.97;;
8042;SDS011;4064;48.132;11.366;2023-11-21T13:40:42;4.30;;;1.60;;
8042;SDS011;4064;48.132;11.366;2023-11-21T13:43:14;3.07;;;1.60;;
8042;SDS011;4064;48.132;11.366;2023-11-21T13:45:47;2.17;;;1.83;;
8042;SDS011;4064;48.132;11.366;2023-11-21T13:48:17;3.43;;;2.10;;
8042;SDS011;4064;48.132;11.366;2023-11-21T13:51:02;6.83;;;1.67;;
8042;SDS011;4064;48.132;11.366;2023-11-21T13:53:35;1.73;;;1.40;;
8042;SDS011;4064;48.132;11.366;2023-11-21T13:56:03;2.57;;;1.47;;
8042;SDS011;4064;48.132;11.366;2023-11-21T13:58:30;2.53;;;1.90;;
8042;SDS011;4064;48.132;11.366;2023-11-21T14:01:15;2.07;;;1.50;;
8042;SDS011;4064;48.132;11.366;2023-11-21T14:03:56;2.20;;;1.37;;
8042;SDS011;4064;48.132;11.366;2023-11-21T14:06:34;1.20;;;1.00;;
8042;SDS011;4064;48.132;11.366;2023-11-21T14:09:12;1.53;;;0.80;;
8042;SDS011;4064;48.132;11.366;2023-11-21T14:11:47;1.10;;;0.80;;
8042;SDS011;4064;48.132;11.366;2023-11-21T14:14:23;2.03;;;0.93;;
8042;SDS011;4064;48.132;11.366;2023-11-21T14:16:55;3.97;;;0.90;;
8042;SDS011;4064;48.132;11.366;2023-11-21T14:19:22;2.30;;;1.20;;
8042;SDS011;4064;48.132;11.366;2023-11-21T14:21:52;2.10;;;1.30;;
8042;SDS011;4064;48.132;11.366;2023-11-21T14:24:18;2.03;;;1.00;;
8042;SDS011;4064;48.132;11.366;2023-11-21T14:26:44;2.83;;;1.23;;
8042;SDS011;4064;48.132;11.366;2023-11-21T14:29:11;1.70;;;1.30;;
8042;SDS011;4064;48.132;11.366;2023-11-21T14:31:39;1.40;;;1.10;;
8042;SDS011;4064;48.132;11.366;2023-11-21T14:34:06;1.20;;;1.10;;
8042;SDS011;4064;48.132;11.366;2023-11-21T14:36:37;1.20;;;1.10;;
8042;SDS011;4064;48.132;11.366;2023-11-21T14:39:04;1.97;;;1.00;;
8042;SDS011;4064;48.132;11.366;2023-11-21T14:41:34;1.77;;;1.03;;
8042;SDS011;4064;48.132;11.366;2023-11-21T14:44:01;1.10;;;1.00;;
8042;SDS011;4064;48.132;11.366;2023-11-21T14:46:28;1.30;;;1.10;;
8042;SDS011;4064;48.132;11.366;2023-11-21T14:48:54;1.17;;;0.83;;
8042;SDS011;4064;48.132;11.366;2023-11-21T14:51:39;1.40;;;0.90;;
8042;SDS011;4064;48.132;11.366;2023-11-21T14:54:25;1.37;;;1.20;;
8042;SDS011;4064;48.132;11.366;2023-11-21T14:57:08;2.30;;;1.47;;
8042;SDS011;4064;48.132;11.366;2023-11-21T14:59:36;4.30;;;2.20;;
8042;SDS011;4064;48.132;11.366;2023-11-21T15:02:02;3.30;;;3.00;;
8042;SDS011;4064;48.132;11.366;2023-11-21T15:04:46;4.70;;;4.07;;
8042;SDS011;4064;48.132;11.366;2023-11-21T15:07:12;3.90;;;3.47;;
8042;SDS011;4064;48.132;11.366;2023-11-21T15:09:38;2.70;;;2.50;;
8042;SDS011;4064;48.132;11.366;2023-11-21T15:12:07;3.37;;;2.30;;
8042;SDS011;4064;48.132;11.366;2023-11-21T15:14:43;4.30;;;1.93;;
8042;SDS011;4064;48.132;11.366;2023-11-21T15:17:10;4.40;;;2.60;;
8042;SDS011;4064;48.132;11.366;2023-11-21T15:19:41;3.27;;;2.97;;
8042;SDS011;4064;48.132;11.366;2023-11-21T15:22:08;3.97;;;3.27;;
8042;SDS011;4064;48.132;11.366;2023-11-21T15:24:35;3.57;;;2.53;;